METAR Data
IDs: Format: Raw Decoded Include TAF

Data at: 1752 UTC 21 Sep 2018

KCOM 211735Z AUTO 17009G15KT 7SM -RA SCT018 BKN046 OVC065 24/22 A2997 RMK AO2 P0004 T02350224
KCOM 211715Z AUTO 17008KT 5SM -RA SCT046 BKN060 OVC075 23/22 A2998 RMK AO2 P0002 T02320222
KCOM 211655Z AUTO 17009KT 5SM RA SCT075 OVC085 23/22 A2998 RMK AO2 P0013 T02310221
KCOM 211635Z AUTO 17011G14KT 5SM RA SCT017 SCT022 OVC085 23/22 A2998 RMK AO2 LTG DSNT SW P0008 T02320222
KCOM 211615Z AUTO 17007KT 5SM RA OVC020 23/22 A2998 RMK AO2 LTG DSNT SW P0004 T02320221
KCOM 211555Z AUTO 16007KT 7SM RA OVC024 23/22 A2998 RMK AO2 LTG DSNT SW P0006 T02330220
KCOM 211535Z AUTO 16007KT 7SM RA OVC022 23/22 A2997 RMK AO2 LTG DSNT SW P0003 T02340220
KCOM 211515Z AUTO 17007KT 10SM -RA OVC020 24/22 A2997 RMK AO2 LTG DSNT SW P0001 T02350219
KCOM 211455Z AUTO 16009KT 10SM DZ OVC020 24/22 A2996 RMK AO2 LTG DSNT SW P0001 60003 T02350220
KCOM 211435Z AUTO 16008KT 10SM -DZ OVC022 24/22 A2996 RMK AO2 LTG DSNT SW P0001 T02350220
KCOM 211415Z AUTO 16009KT 7SM -RA SCT008 SCT013 OVC022 24/22 A2996 RMK AO2 LTG DSNT SW AND W P0001 T02350221
KCOM 211355Z AUTO 15010KT 7SM DZ SCT010 BKN016 OVC023 24/22 A2995 RMK AO2 LTG DSNT SW P0001 T02350221
KCOM 211335Z AUTO 15008KT 7SM -RA SCT010 BKN019 OVC025 24/22 A2995 RMK AO2 LTG DSNT SW P0001 T02350221
KCOM 211315Z AUTO 14009KT 7SM -RA SCT008 BKN015 OVC026 24/22 A2994 RMK AO2 LTG DSNT SW AND W T02350222
KCOM 211255Z AUTO 15008KT 7SM -RA BKN008 BKN012 OVC017 23/22 A2993 RMK AO2 LTG DSNT SW P0001 T02330221
KCOM 211235Z AUTO 15007KT 7SM -RA OVC008 23/22 A2993 RMK AO2 LTG DSNT W T02330220
KCOM 211215Z AUTO 14008KT 10SM -RA BKN008 OVC014 24/22 A2993 RMK AO2 LTG DSNT SW AND NW T02350220
KCOM 211155Z AUTO 15006KT 10SM OVC010 24/22 A2993 RMK AO2 70016 T02350218 10235 20227
KCOM 211135Z AUTO 15008KT 10SM OVC010 24/22 A2992 RMK AO2 T02350220
KCOM 211115Z AUTO 16009KT 10SM BKN008 OVC014 24/22 A2992 RMK AO2 T02350219
KCOM 211055Z AUTO 15009KT 10SM OVC008 24/22 A2991 RMK AO2 LTG DSNT W T02350220
KCOM 211035Z AUTO 14007KT 10SM OVC008 23/22 A2991 RMK AO2 LTG DSNT W T02330218
KCOM 211015Z AUTO 15008KT 10SM OVC008 23/22 A2992 RMK AO2 LTG DSNT W T02330218
KCOM 210955Z AUTO 15008KT 10SM -RA BKN008 OVC022 23/22 A2992 RMK AO2 T02320217
KCOM 210935Z AUTO 16011KT 10SM VCTS BKN008 OVC020 23/22 A2991 RMK AO2 LTG DSNT W T02310217
KCOM 210915Z AUTO 15007KT 10SM BKN008 OVC120 23/22 A2991 RMK AO2 LTG DSNT W T02310217
KCOM 210855Z AUTO 15005KT 10SM OVC008 23/22 A2991 RMK AO2 T02320217
KCOM 210835Z AUTO 15008KT 10SM OVC008 23/22 A2991 RMK AO2 T02310216
KCOM 210815Z AUTO 15007KT 10SM OVC008 23/22 A2992 RMK AO2 LTG DSNT W T02310216
KCOM 210755Z AUTO 16008KT 10SM OVC008 23/22 A2993 RMK AO2 LTG DSNT W T02300215
KCOM 210735Z AUTO 16006KT 10SM OVC008 23/22 A2993 RMK AO2 LTG DSNT W T02300215
KCOM 210715Z AUTO 16008KT 10SM OVC008 23/22 A2993 RMK AO2 T02280215
KCOM 210655Z AUTO 16007KT 10SM BKN006 OVC012 23/22 A2994 RMK AO2 T02280215
KCOM 210635Z AUTO 17008KT 10SM OVC006 23/21 A2995 RMK AO2 T02270213
KCOM 210615Z AUTO 17007KT 10SM OVC006 23/21 A2995 RMK AO2 LTG DSNT W T02270213
KCOM 210555Z AUTO 16008KT 10SM OVC006 23/21 A2996 RMK AO2 T02270212 10233 20225 403030206
KCOM 210535Z AUTO 15010G14KT 10SM OVC006 23/21 A2996 RMK AO2 T02250211
KCOM 210515Z AUTO 16009G14KT 10SM OVC006 23/21 A2996 RMK AO2 T02250210
KCOM 210455Z AUTO 15010KT 10SM OVC006 23/21 A2996 RMK AO2 T02250210
KCOM 210435Z AUTO 15010G17KT 10SM BKN008 BKN012 OVC110 23/21 A2996 RMK AO2 T02250210
KCOM 210415Z AUTO 15006KT 10SM SCT007 SCT014 OVC110 23/21 A2996 RMK AO2 T02260212
KCOM 210355Z AUTO 15008KT 10SM SCT007 BKN046 OVC110 23/21 A2996 RMK AO2 T02270213
KCOM 210335Z AUTO 15008KT 10SM SCT007 BKN046 OVC060 23/21 A2996 RMK AO2 T02270212
KCOM 210315Z AUTO 16008G15KT 10SM BKN009 BKN044 23/21 A2995 RMK AO2 T02270211
KCOM 210255Z AUTO 15012G16KT 10SM BKN009 BKN033 23/21 A2995 RMK AO2 T02270210
KCOM 210235Z AUTO 16010G15KT 10SM CLR 23/21 A2995 RMK AO2 T02270206
KCOM 210215Z AUTO 15009G14KT 10SM SCT085 23/21 A2993 RMK AO2 T02250205
KCOM 210155Z AUTO 15010G14KT 10SM SCT085 23/21 A2993 RMK AO2 T02250206
KCOM 210135Z AUTO 15010G15KT 10SM CLR 23/21 A2991 RMK AO2 T02250205
KCOM 210115Z AUTO 15009G14KT 10SM SCT046 SCT090 23/21 A2991 RMK AO2 T02270207
KCOM 210055Z AUTO 14009KT 10SM SCT044 BKN090 23/21 A2990 RMK AO2 T02300208
KCOM 210035Z AUTO 14010G18KT 10SM SCT020 SCT026 OVC090 23/21 A2990 RMK AO2 T02320209
KCOM 210015Z AUTO 13009KT 10SM SCT016 BKN026 OVC045 23/21 A2990 RMK AO2 T02330214
KCOM 202355Z AUTO 12007KT 10SM SCT018 BKN045 OVC060 23/21 A2990 RMK AO2 P0013 60016 T02300213 10303 20227
KCOM 202340Z AUTO 12009KT 2 1/2SM -RA SCT018 BKN037 OVC060 23/21 A2990 RMK AO2 VIS 1V5 P0013 T02270210
KCOM 202315Z AUTO 13013G19KT 10SM -RA SCT024 BKN046 OVC060 25/20 A2989 RMK AO2 T02450200
KCOM 202255Z AUTO 13012G19KT 10SM SCT048 OVC060 25/20 A2989 RMK AO2 T02540196
KCOM 202235Z AUTO 14014G19KT 10SM BKN050 BKN060 OVC110 26/20 A2989 RMK AO2 T02570196
KCOM 202215Z AUTO 14011G22KT 10SM SCT033 BKN065 OVC110 27/20 A2988 RMK AO2 T02730199
KCOM 202155Z AUTO 14013G19KT 10SM SCT070 OVC110 28/19 A2988 RMK AO2 T02790191
KCOM 202135Z AUTO 14012KT 10SM SCT028 SCT041 BKN100 28/19 A2988 RMK AO2 T02820193
KCOM 202115Z AUTO 15009G22KT 7SM SCT028 SCT044 BKN070 29/21 A2988 RMK AO2 T02920206
KCOM 202055Z AUTO 16009G15KT 10SM SCT050 SCT070 SCT100 30/19 A2988 RMK AO2 LTG DSNT SE 60003 T02950188
KCOM 202035Z AUTO 15010G15KT 10SM CLR 30/20 A2989 RMK AO2 LTG DSNT SE T03020196
KCOM 202015Z AUTO 15012G20KT 10SM CLR 30/20 A2990 RMK AO2 LTG DSNT S T02950202
KCOM 201955Z AUTO 15012KT 10SM CLR 29/20 A2991 RMK AO2 LTG DSNT N THRU SE P0003 T02900203
KCOM 201935Z AUTO 12007KT 10SM SCT036 SCT045 SCT110 27/22 A2993 RMK AO2 LTG DSNT SE P0003 T02680218
KCOM 201915Z AUTO 10007KT 10SM -VCTSRA SCT026 BKN038 OVC060 25/21 A2995 RMK AO2 LTG DSNT SE P0003 T02480208
KCOM 201850Z AUTO 18012G19KT 10SM SCT043 BKN060 BKN090 29/19 A2995 RMK AO2 T02940188
KCOM 201835Z AUTO 17012G15KT 10SM SCT041 BKN050 BKN100 29/19 A2995 RMK AO2 T02940190
KCOM 201815Z AUTO 18008G18KT 10SM SCT039 BKN050 BKN055 30/19 A2996 RMK AO2 T02970190
KCOM 201755Z AUTO 17011G17KT 10SM SCT039 BKN050 30/20 A2997 RMK AO2 T02990195 10302 20206
KCOM 201735Z AUTO 19011G17KT 10SM SCT036 BKN043 BKN049 30/20 A2998 RMK AO2 T03020196
KCOM 201715Z AUTO 18013G18KT 10SM SCT032 BKN042 OVC049 29/20 A2999 RMK AO2 T02940197
KCOM 201655Z AUTO 17015G19KT 10SM BKN032 BKN039 BKN046 29/20 A2999 RMK AO2 T02850200
KCOM 201635Z AUTO 19010KT 10SM BKN026 BKN033 28/20 A2999 RMK AO2 T02780196
KCOM 201615Z AUTO 19008G14KT 10SM SCT022 BKN028 BKN033 27/21 A2999 RMK AO2 T02740207
KCOM 201555Z AUTO 17008G17KT 10SM SCT018 28/21 A3000 RMK AO2 T02760211
KCOM 201535Z AUTO 18009G15KT 10SM SCT014 27/21 A3000 RMK AO2 T02680210
KCOM 201515Z AUTO 18010G15KT 10SM SCT014 26/21 A3000 RMK AO2 T02590208
KCOM 201455Z AUTO 18008KT 10SM SCT010 25/21 A2999 RMK AO2 T02460210
KCOM 201435Z AUTO 18008KT 10SM SCT008 SCT014 24/21 A2999 RMK AO2 T02400210
KCOM 201415Z AUTO 16005KT 10SM SCT008 SCT014 24/21 A2999 RMK AO2 T02430212
KCOM 201355Z AUTO 17005KT 10SM SCT016 23/21 A2999 RMK AO2 T02290212
KCOM 201335Z AUTO 16004KT 10SM CLR 22/21 A2998 RMK AO2 T02200211
KCOM 201315Z AUTO 00000KT 7SM CLR 21/21 A2998 RMK AO2 T02130206
KCOM 201255Z AUTO 00000KT 5SM BR CLR 21/20 A2997 RMK AO2 T02060198
KCOM 201235Z AUTO 14003KT 7SM CLR 21/20 A2996 RMK AO2 T02080200
KCOM 201215Z AUTO 20003KT 10SM CLR 21/20 A2996 RMK AO2 T02080200
KCOM 201155Z AUTO 00000KT 10SM CLR 21/20 A2996 RMK AO2 T02100200 10228 20210
KCOM 201135Z AUTO 21003KT 10SM CLR 21/20 A2996 RMK AO2 T02100200
KCOM 201115Z AUTO 19003KT 10SM CLR 21/20 A2995 RMK AO2 T02120200
KCOM 201055Z AUTO 18005KT 10SM CLR 22/20 A2995 RMK AO2 T02150200
KCOM 201035Z AUTO 18004KT 10SM CLR 22/20 A2995 RMK AO2 T02160200
KCOM 201015Z AUTO 17005KT 10SM CLR 22/20 A2995 RMK AO2 T02180198
KCOM 200955Z AUTO 18007KT 10SM CLR 22/20 A2996 RMK AO2 T02200197
KCOM 200935Z AUTO 17007KT 10SM CLR 22/20 A2996 RMK AO2 T02180195
KCOM 200915Z AUTO 17007KT 10SM CLR 22/19 A2996 RMK AO2 T02200193
KCOM 200855Z AUTO 18006KT 10SM CLR 22/19 A2996 RMK AO2 T02190192
KCOM 200835Z AUTO 18005KT 10SM CLR 22/19 A2996 RMK AO2 T02170190
KCOM 200815Z AUTO 19003KT 10SM CLR 21/19 A2997 RMK AO2 T02140187
KCOM 200755Z AUTO 18003KT 10SM SCT035 22/19 A2996 RMK AO2 T02150186
KCOM 200735Z AUTO 00000KT 10SM CLR 22/19 A2997 RMK AO2 T02180186
KCOM 200715Z AUTO 19004KT 10SM CLR 22/19 A2997 RMK AO2 T02200185
KCOM 200655Z AUTO 19003KT 10SM CLR 22/18 A2997 RMK AO2 T02190183
KCOM 200635Z AUTO 19003KT 10SM CLR 22/18 A2997 RMK AO2 T02210182
KCOM 200615Z AUTO 19004KT 10SM CLR 23/18 A2997 RMK AO2 T02250180
KCOM 200555Z AUTO 21004KT 10SM CLR 23/18 A2998 RMK AO2 T02270180 10307 20225 403270196